Terminal Aerodrome Forecast
Issued by NWS

Home | Current Version | Previous Version | Text Only | Print | Product List | Glossary On
Versions: 1 2 3 4 5 6 7 8 9 10 11 12 13 14 15 16
000
FTUS43 KAPX 230520
TAFPLN
TAF
KPLN 230520Z 2306/2406 16003KT 4SM BR OVC006
     FM230900 14005KT 3SM BR OVC005 WS015/22030KT
     FM231500 16005KT 3SM -DZ BR OVC005 WS015/21030KT
     FM240100 12004KT 2SM RA BR OVC005 WS015/18028KT=

USA.gov is the U.S. government's official web portal to all federal, state and local government web resources and services.